createdAt,value
2023-03-24T00:00:57.675Z,6.25
2023-03-24T00:03:26.159Z,6.19
2023-03-24T00:06:05.173Z,6.11
2023-03-24T00:08:39.084Z,6.08
2023-03-24T00:11:11.778Z,6.20
2023-03-24T00:13:41.279Z,6.25
2023-03-24T00:16:13.341Z,6.15
2023-03-24T00:18:42.485Z,6.08
2023-03-24T00:21:13.259Z,6.12
2023-03-24T00:23:43.809Z,6.17
2023-03-24T00:26:20.204Z,6.09
2023-03-24T00:28:51.980Z,6.02
2023-03-24T00:31:22.421Z,6.01
2023-03-24T00:33:53.945Z,6.06
2023-03-24T00:36:25.904Z,6.00
2023-03-24T00:38:56.906Z,6.03
2023-03-24T00:41:33.950Z,5.97
2023-03-24T00:44:08.219Z,5.97
2023-03-24T00:46:38.790Z,5.95
2023-03-24T00:49:10.990Z,5.87
2023-03-24T00:51:50.930Z,5.83
2023-03-24T00:54:26.092Z,5.82
2023-03-24T00:56:56.156Z,5.72
2023-03-24T00:59:25.389Z,5.64
2023-03-24T01:01:55.854Z,5.61
2023-03-24T01:04:26.943Z,5.55
2023-03-24T01:06:58.807Z,5.56
2023-03-24T01:09:28.961Z,5.58
2023-03-24T01:11:58.299Z,5.45
2023-03-24T01:14:28.690Z,5.44
2023-03-24T01:17:00.857Z,5.43
2023-03-24T01:19:29.815Z,5.41
2023-03-24T01:22:02.595Z,5.39
2023-03-24T01:24:33.023Z,5.30
2023-03-24T01:27:01.789Z,5.36
2023-03-24T01:29:30.676Z,5.40
2023-03-24T01:32:02.773Z,5.46
2023-03-24T01:34:34.807Z,5.46
2023-03-24T01:37:04.163Z,5.46
2023-03-24T01:39:34.816Z,5.52
2023-03-24T01:42:03.764Z,5.57
2023-03-24T01:44:38.086Z,5.48
2023-03-24T01:47:09.985Z,5.40
2023-03-24T01:49:41.583Z,5.34
2023-03-24T01:52:13.438Z,5.36
2023-03-24T01:54:58.774Z,5.31
2023-03-24T01:57:36.546Z,5.30
2023-03-24T02:00:08.422Z,5.21
2023-03-24T02:02:37.961Z,5.23
2023-03-24T02:05:10.605Z,5.16
2023-03-24T02:08:17.396Z,5.18
2023-03-24T02:10:47.972Z,5.18
2023-03-24T02:13:18.243Z,5.13
2023-03-24T02:16:21.859Z,4.95
2023-03-24T02:18:59.628Z,4.89
2023-03-24T02:22:05.173Z,4.77
2023-03-24T02:25:02.416Z,4.77
2023-03-24T02:27:46.261Z,4.73
2023-03-24T02:30:37.743Z,4.70
2023-03-24T02:33:27.384Z,4.54
2023-03-24T02:36:22.114Z,4.52
2023-03-24T02:39:13.454Z,4.68
2023-03-24T02:41:55.917Z,4.77
2023-03-24T02:44:46.745Z,4.75
2023-03-24T02:47:35.048Z,4.85
2023-03-24T02:50:24.641Z,4.84
2023-03-24T02:53:14.684Z,4.95
2023-03-24T02:55:49.573Z,5.04
2023-03-24T02:58:29.904Z,5.00
2023-03-24T03:01:07.628Z,4.95
2023-03-24T03:03:45.405Z,5.12
2023-03-24T03:06:25.887Z,5.16
2023-03-24T03:08:59.515Z,5.09
2023-03-24T03:11:31.347Z,5.05
2023-03-24T03:14:03.006Z,5.08
2023-03-24T03:16:36.258Z,5.09
2023-03-24T03:19:12.542Z,5.04
2023-03-24T03:21:44.487Z,5.12
2023-03-24T03:24:40.731Z,5.17
2023-03-24T03:27:15.428Z,5.26
2023-03-24T03:29:49.616Z,5.33
2023-03-24T03:32:26.200Z,5.36
2023-03-24T03:34:57.963Z,5.37
2023-03-24T03:37:32.157Z,5.37
2023-03-24T03:40:12.785Z,5.17
2023-03-24T03:42:43.522Z,5.13
2023-03-24T03:45:14.473Z,5.08
2023-03-24T03:47:43.604Z,4.96
2023-03-24T03:50:12.682Z,4.93
2023-03-24T03:52:43.474Z,5.06
2023-03-24T03:55:14.055Z,5.04
2023-03-24T03:57:45.596Z,5.02
2023-03-24T04:00:19.369Z,4.97
2023-03-24T04:09:27.246Z,4.88
2023-03-24T04:12:14.104Z,4.87
2023-03-24T04:15:04.036Z,4.72
2023-03-24T04:17:52.284Z,4.64
2023-03-24T04:20:24.598Z,4.65
2023-03-24T04:23:09.152Z,4.71
2023-03-24T04:26:10.543Z,4.72
2023-03-24T04:28:59.743Z,4.68
2023-03-24T04:31:34.492Z,4.62
2023-03-24T04:34:06.103Z,4.59
2023-03-24T04:36:50.470Z,4.56
2023-03-24T04:39:29.836Z,4.60
2023-03-24T04:42:04.945Z,4.58
2023-03-24T04:44:37.278Z,4.57
2023-03-24T04:47:08.123Z,4.59
2023-03-24T04:49:41.406Z,4.69
2023-03-24T04:52:10.084Z,4.77
2023-03-24T04:54:39.024Z,4.76
2023-03-24T04:57:10.070Z,4.84
2023-03-24T04:59:38.776Z,4.87
2023-03-24T05:02:14.956Z,4.87
2023-03-24T05:04:43.634Z,4.97
2023-03-24T05:07:17.429Z,5.02
2023-03-24T05:09:47.612Z,5.03
2023-03-24T05:12:16.613Z,5.13
2023-03-24T05:14:45.445Z,5.12
2023-03-24T05:17:23.082Z,5.21
2023-03-24T05:19:54.360Z,5.30
2023-03-24T05:22:43.111Z,5.26
2023-03-24T05:25:14.888Z,5.35
2023-03-24T05:27:44.273Z,5.49
2023-03-24T05:30:13.886Z,5.67
2023-03-24T05:32:45.346Z,5.71
2023-03-24T05:35:13.926Z,5.69
2023-03-24T05:37:42.738Z,5.78
2023-03-24T05:40:15.318Z,5.90
2023-03-24T05:42:44.586Z,5.96
2023-03-24T05:45:13.611Z,5.96
2023-03-24T05:47:43.552Z,6.01
2023-03-24T05:50:12.696Z,6.19
2023-03-24T05:52:44.763Z,6.27
2023-03-24T05:55:15.193Z,6.46
2023-03-24T05:57:44.215Z,6.66
2023-03-24T06:00:19.595Z,6.73
2023-03-24T06:02:51.361Z,6.79
2023-03-24T06:05:20.723Z,6.78
2023-03-24T06:07:58.825Z,6.70
2023-03-24T06:10:28.472Z,7.01
2023-03-24T06:13:00.826Z,7.02
2023-03-24T06:15:30.943Z,7.02
2023-03-24T06:18:01.350Z,6.68
2023-03-24T06:20:30.181Z,7.23
2023-03-24T06:23:00.337Z,7.15
2023-03-24T06:25:30.276Z,7.38
2023-03-24T06:28:03.897Z,7.39
2023-03-24T06:30:32.804Z,7.51
2023-03-24T06:33:07.042Z,7.71
2023-03-24T06:39:04.244Z,7.63
2023-03-24T06:41:35.001Z,7.85
2023-03-24T06:44:03.871Z,7.93
2023-03-24T06:46:32.913Z,8.20
2023-03-24T06:49:01.782Z,8.47
2023-03-24T06:51:30.664Z,8.66
2023-03-24T06:53:59.857Z,8.77
2023-03-24T07:00:11.070Z,8.85
2023-03-24T07:02:46.827Z,8.98
2023-03-24T07:05:18.764Z,8.75
2023-03-24T07:10:19.765Z,9.05
2023-03-24T07:12:49.150Z,9.18
2023-03-24T07:15:18.729Z,9.16
2023-03-24T07:17:47.614Z,9.33
2023-03-24T07:20:25.321Z,9.58
2023-03-24T07:23:03.442Z,9.79
2023-03-24T07:25:32.402Z,9.67
2023-03-24T07:34:22.792Z,10.36
2023-03-24T07:36:55.885Z,10.35
2023-03-24T08:03:25.959Z,11.01
2023-03-24T08:05:58.287Z,11.01
2023-03-24T08:08:34.642Z,11.58
2023-03-24T08:11:04.398Z,11.65
2023-03-24T08:13:42.238Z,11.76
2023-03-24T08:16:14.563Z,12.16
2023-03-24T08:18:43.513Z,12.32
2023-03-24T08:27:12.319Z,12.04
2023-03-24T08:27:30.082Z,12.25
2023-03-24T08:30:01.799Z,12.65
2023-03-24T08:42:24.187Z,13.41
2023-03-24T08:44:59.919Z,13.58
2023-03-24T08:47:32.768Z,13.77
2023-03-24T08:50:05.105Z,12.72
2023-03-24T08:52:36.585Z,12.78
2023-03-24T08:55:06.998Z,13.26
2023-03-24T08:57:36.951Z,13.53
2023-03-24T09:00:17.057Z,13.65
2023-03-24T09:02:57.063Z,13.53
2023-03-24T09:05:54.237Z,13.82
2023-03-24T09:08:04.247Z,14.23
2023-03-24T09:10:38.595Z,14.43
2023-03-24T09:16:37.296Z,14.44
2023-03-24T09:19:07.880Z,14.56
2023-03-24T09:25:08.576Z,14.67
2023-03-24T09:27:39.251Z,14.95
2023-03-24T09:30:12.091Z,14.83
2023-03-24T09:32:42.143Z,15.13
2023-03-24T09:35:17.509Z,15.24
2023-03-24T09:37:48.399Z,15.32
2023-03-24T09:40:23.713Z,15.27
2023-03-24T09:42:58.492Z,15.35
2023-03-24T09:45:34.080Z,15.22
2023-03-24T09:48:07.253Z,15.03
2023-03-24T09:50:49.463Z,15.13
2023-03-24T09:53:39.667Z,15.34
2023-03-24T10:06:24.731Z,16.01
2023-03-24T10:12:49.786Z,16.30
2023-03-24T10:15:37.341Z,16.54
2023-03-24T10:18:18.756Z,16.01
2023-03-24T10:20:50.830Z,15.84
2023-03-24T10:26:45.146Z,16.33
2023-03-24T10:29:20.962Z,16.76
2023-03-24T10:32:10.521Z,16.93
2023-03-24T10:34:45.283Z,16.84
2023-03-24T10:37:18.997Z,16.97
2023-03-24T10:39:52.504Z,17.00
2023-03-24T10:42:34.780Z,16.83
2023-03-24T10:45:11.235Z,16.98
2023-03-24T10:54:01.250Z,16.87
2023-03-24T10:56:46.311Z,16.77
2023-03-24T10:59:27.624Z,17.62
2023-03-24T11:02:20.451Z,17.64
2023-03-24T11:07:56.425Z,17.67
2023-03-24T11:10:29.334Z,17.67
2023-03-24T11:13:02.659Z,17.74
2023-03-24T11:15:33.865Z,17.71
2023-03-24T11:18:19.272Z,17.87
2023-03-24T11:21:01.208Z,17.96
2023-03-24T11:23:36.000Z,17.88
2023-03-24T11:26:13.347Z,18.05
2023-03-24T11:28:55.863Z,18.17
2023-03-24T11:31:31.286Z,18.13
2023-03-24T11:34:12.124Z,18.37
2023-03-24T11:36:58.009Z,18.43
2023-03-24T11:39:38.030Z,18.62
2023-03-24T11:46:27.851Z,18.49
2023-03-24T11:49:04.776Z,18.52
2023-03-24T11:51:48.462Z,18.85
2023-03-24T11:54:21.942Z,18.96
2023-03-24T11:56:57.053Z,18.86
2023-03-24T11:59:44.010Z,18.92
2023-03-24T12:02:16.224Z,19.10
2023-03-24T12:05:07.073Z,19.57
2023-03-24T12:07:56.777Z,19.25
2023-03-24T12:10:28.817Z,20.09
2023-03-24T12:13:29.932Z,20.31
2023-03-24T12:16:07.897Z,20.44
2023-03-24T12:18:52.000Z,20.01
2023-03-24T12:21:26.846Z,19.30
2023-03-24T12:24:02.614Z,19.20
2023-03-24T12:26:35.683Z,19.44
2023-03-24T12:32:53.999Z,19.62
2023-03-24T12:35:54.056Z,19.73
2023-03-24T12:38:54.560Z,19.21
2023-03-24T12:41:56.005Z,19.92
2023-03-24T12:45:07.413Z,20.12
2023-03-24T12:51:28.557Z,20.13
2023-03-24T12:57:29.338Z,20.82
2023-03-24T13:00:01.704Z,21.19
2023-03-24T13:02:39.409Z,21.01
2023-03-24T13:05:16.049Z,20.76
2023-03-24T13:07:51.367Z,20.65
2023-03-24T13:10:26.210Z,20.38
2023-03-24T13:12:59.548Z,20.18
2023-03-24T13:15:35.389Z,20.17
2023-03-24T13:18:16.140Z,20.08
2023-03-24T13:20:56.964Z,20.18
2023-03-24T13:24:00.320Z,20.09
2023-03-24T13:27:04.512Z,19.94
2023-03-24T13:29:48.618Z,19.68
2023-03-24T13:32:26.713Z,19.59
2023-03-24T13:35:16.340Z,19.49
2023-03-24T13:37:53.878Z,19.45
2023-03-24T13:40:25.615Z,19.47
2023-03-24T13:43:02.011Z,19.46
2023-03-24T13:45:49.509Z,19.58
2023-03-24T13:48:24.398Z,19.56
2023-03-24T13:50:59.800Z,19.72
2023-03-24T13:53:42.212Z,19.73
2023-03-24T13:56:17.914Z,19.80
2023-03-24T13:59:01.590Z,19.66
2023-03-24T14:01:36.515Z,19.66
2023-03-24T14:04:29.090Z,19.77
2023-03-24T14:07:00.391Z,19.58
2023-03-24T14:09:33.125Z,19.74
2023-03-24T14:12:08.605Z,19.67
2023-03-24T14:14:40.190Z,19.76
2023-03-24T14:17:16.543Z,19.94
2023-03-24T14:20:05.251Z,20.01
2023-03-24T14:22:39.174Z,20.01
2023-03-24T14:25:19.831Z,20.00
2023-03-24T14:27:50.288Z,19.51
2023-03-24T14:30:25.263Z,19.89
2023-03-24T14:32:58.906Z,20.29
2023-03-24T14:35:49.300Z,20.44
2023-03-24T14:38:23.280Z,20.60
2023-03-24T14:40:54.946Z,20.69
2023-03-24T14:43:31.930Z,20.64
2023-03-24T14:46:26.282Z,20.42
2023-03-24T14:49:03.725Z,20.47
2023-03-24T14:55:10.221Z,20.59
2023-03-24T14:57:42.033Z,20.47
2023-03-24T15:00:47.184Z,20.57
2023-03-24T15:03:21.535Z,20.52
2023-03-24T15:05:50.394Z,20.47
2023-03-24T15:08:23.957Z,20.29
2023-03-24T15:10:58.257Z,20.45
2023-03-24T15:13:42.145Z,20.45
2023-03-24T15:16:16.904Z,20.41
2023-03-24T15:19:03.586Z,20.40
2023-03-24T15:21:38.042Z,20.30
2023-03-24T15:24:33.556Z,20.33
2023-03-24T15:27:11.346Z,20.30
2023-03-24T15:29:46.273Z,20.29
2023-03-24T15:35:02.545Z,20.43
2023-03-24T15:41:33.811Z,20.18
2023-03-24T15:44:05.440Z,19.98
2023-03-24T15:46:35.461Z,19.86
2023-03-24T15:49:08.667Z,20.23
2023-03-24T15:52:08.612Z,20.60
2023-03-24T15:57:55.339Z,20.43
2023-03-24T16:00:19.372Z,20.03
2023-03-24T16:06:11.114Z,19.40
2023-03-24T16:08:44.945Z,19.12
2023-03-24T16:11:50.971Z,18.78
2023-03-24T16:14:14.245Z,18.85
2023-03-24T16:16:44.449Z,18.82
2023-03-24T16:19:16.394Z,18.70
2023-03-24T16:21:45.008Z,18.58
2023-03-24T16:24:13.661Z,18.48
2023-03-24T16:26:42.407Z,18.35
2023-03-24T16:29:17.048Z,18.16
2023-03-24T16:31:49.094Z,18.02
2023-03-24T16:34:21.152Z,17.79
2023-03-24T16:36:52.038Z,17.57
2023-03-24T16:39:29.343Z,17.42
2023-03-24T16:41:58.906Z,17.20
2023-03-24T16:44:34.497Z,16.89
2023-03-24T16:47:17.964Z,16.85
2023-03-24T16:49:48.195Z,16.65
2023-03-24T16:52:18.334Z,16.49
2023-03-24T16:54:49.560Z,16.32
2023-03-24T16:57:18.347Z,16.12
2023-03-24T16:59:49.888Z,16.06
2023-03-24T17:02:18.666Z,16.07
2023-03-24T17:04:53.325Z,15.92
2023-03-24T17:07:24.939Z,15.78
2023-03-24T17:10:01.213Z,15.67
2023-03-24T17:12:30.349Z,15.53
2023-03-24T17:15:05.027Z,15.50
2023-03-24T17:17:37.203Z,15.49
2023-03-24T17:20:06.903Z,15.39
2023-03-24T17:22:35.722Z,15.42
2023-03-24T17:25:04.675Z,15.32
2023-03-24T17:27:37.745Z,15.29
2023-03-24T17:30:21.632Z,15.11
2023-03-24T17:32:57.025Z,15.07
2023-03-24T17:35:40.131Z,15.03
2023-03-24T17:39:15.103Z,14.88
2023-03-24T17:51:47.334Z,14.60
2023-03-24T17:54:52.058Z,14.36
2023-03-24T17:57:45.746Z,14.32
2023-03-24T18:01:08.366Z,14.19
2023-03-24T18:06:34.936Z,13.91
2023-03-24T18:09:18.112Z,13.79
2023-03-24T18:18:55.911Z,13.52
2023-03-24T18:21:41.786Z,13.46
2023-03-24T18:24:27.704Z,13.29
2023-03-24T18:27:09.916Z,13.17
2023-03-24T18:29:43.383Z,13.13
2023-03-24T18:32:23.373Z,13.07
2023-03-24T18:35:22.044Z,13.02
2023-03-24T18:38:18.465Z,12.93
2023-03-24T18:49:41.621Z,12.81
2023-03-24T18:51:38.700Z,12.63
2023-03-24T18:54:16.924Z,12.56
2023-03-24T18:57:16.506Z,12.50
2023-03-24T19:15:42.565Z,12.18
2023-03-24T19:19:43.622Z,12.15
2023-03-24T19:22:11.430Z,12.13
2023-03-24T19:24:57.542Z,12.04
2023-03-24T19:30:58.088Z,12.01
2023-03-24T19:58:47.607Z,11.69
2023-03-24T20:07:36.002Z,11.59
2023-03-24T20:11:45.586Z,11.50
2023-03-24T20:16:57.891Z,11.41
2023-03-24T20:40:10.856Z,11.57
2023-03-24T20:43:10.920Z,11.50
2023-03-24T20:49:04.455Z,11.32
2023-03-24T20:51:41.693Z,11.17
2023-03-24T20:54:13.213Z,11.09
2023-03-24T20:59:55.199Z,10.99
2023-03-24T21:17:45.888Z,10.76
2023-03-24T21:20:28.335Z,10.72
2023-03-24T21:23:01.800Z,10.72
2023-03-24T21:25:37.397Z,10.69
2023-03-24T21:28:29.673Z,10.63
2023-03-24T21:30:59.496Z,10.59
2023-03-24T21:33:28.695Z,10.48
2023-03-24T21:35:59.397Z,10.49
2023-03-24T21:38:28.785Z,10.52
2023-03-24T21:41:04.656Z,10.55
2023-03-24T21:43:35.279Z,10.54
2023-03-24T21:46:04.410Z,10.49
2023-03-24T21:48:38.311Z,10.46
2023-03-24T21:51:09.490Z,10.41
2023-03-24T21:53:42.803Z,10.37
2023-03-24T21:56:19.191Z,10.44
2023-03-24T21:58:58.239Z,10.31
2023-03-24T22:01:34.249Z,10.30
2023-03-24T22:04:22.658Z,10.32
2023-03-24T22:07:08.305Z,10.28
2023-03-24T22:09:39.011Z,10.26
2023-03-24T22:12:19.449Z,10.22
2023-03-24T22:18:04.489Z,10.11
2023-03-24T22:21:15.764Z,10.06
2023-03-24T22:23:31.537Z,10.06
2023-03-24T22:26:08.115Z,9.97
2023-03-24T22:28:40.060Z,9.82
2023-03-24T22:31:16.652Z,9.75
2023-03-24T22:33:48.010Z,9.66
2023-03-24T22:36:16.796Z,9.45
2023-03-24T22:38:45.556Z,9.53
2023-03-24T22:41:14.809Z,9.61
2023-03-24T22:43:47.557Z,9.42
2023-03-24T22:46:22.561Z,9.32
2023-03-24T22:48:55.835Z,9.23
2023-03-24T22:51:25.691Z,9.15
2023-03-24T22:53:58.506Z,9.16
2023-03-24T23:00:02.654Z,9.23
2023-03-24T23:02:31.551Z,9.15
2023-03-24T23:05:00.484Z,9.12
2023-03-24T23:07:29.682Z,9.06
2023-03-24T23:09:59.683Z,9.00
2023-03-24T23:12:29.149Z,9.01
2023-03-24T23:14:57.937Z,9.00
2023-03-24T23:17:26.671Z,9.00
2023-03-24T23:19:56.326Z,8.77
2023-03-24T23:22:25.115Z,8.85
2023-03-24T23:25:00.777Z,8.79
2023-03-24T23:27:26.891Z,8.62
2023-03-24T23:29:57.612Z,8.60
2023-03-24T23:32:31.632Z,8.60
2023-03-24T23:35:05.972Z,8.55
2023-03-24T23:37:45.019Z,8.56
2023-03-24T23:40:21.549Z,8.58
2023-03-24T23:42:58.062Z,8.50
2023-03-24T23:48:24.394Z,8.45
2023-03-24T23:51:20.636Z,8.46
2023-03-24T23:53:58.630Z,8.52
2023-03-24T23:56:36.370Z,8.33
2023-03-24T23:59:06.590Z,8.34
